Creston, WV (26141)

6:33 PM EDT on August 29, 2015 (GMT -0400)
Deerfield | | Change Station
CLOSE
Current Station
Personal Weather Station
Location: Spencer, WV
Elevation: 950 ft
Nearby Weather Stations

Elev 950 ft 38.82 °N, 81.38 °W | Updated 3 minutes ago

Mostly Cloudy
Mostly Cloudy
84.0 °F
Feels Like 89 °F
N
0.0
Wind Variable Wind from ENE
Gusts 0.0 mph

Today
High -- | Low -- °F
--% Chance of Precip.
Yesterday
High -- | Low -- °F
Precip. -- in
6:50 AM 8:00 PM
Full, 100% visible
Pressure 30.09 in
Visibility 10.0 miles
Clouds Clear
Heat Index 89 °F
Dew Point 70 °F
Humidity 64%
Rainfall 0.00 in
Snow Depth Not available.
UV 2 out of 12
Pollen 9.30 out of 12
Air Quality Not available.
Flu Activity Not available.
METAR KPKB 292153Z 19005KT 10SM CLR 29/17 A3011 RMK AO2 SLP189 T02940167
Pressure 30.09 in
Visibility 10.0 miles
Clouds Clear
Heat Index 89 °F
Dew Point 70 °F
Humidity 64%
Rainfall 0.00 in
Snow Depth Not available.
UV 2 out of 12
Pollen 9.30 out of 12
Air Quality Not available.
Flu Activity Not available.
METAR KPKB 292153Z 19005KT 10SM CLR 29/17 A3011 RMK AO2 SLP189 T02940167

10-Day Weather Forecast

×

Almanac

Astronomy

Aug. 29, 2015 Rise Set
Actual Time
Civil Twilight
Nautical Twilight
Astronomical Twilight
Moon
Length of Visible Light
Length of Day
Tomorrow will be .
, % of the Moon is Illuminated

Today's Extremes

State Highs State Lows

Community

WunderPhotos

Upload Photos

1,850,775 photos uploaded!

WunderBlogs® & News

Nearby

Air Quality

  Air Quality AQ Index Pollutant
Not available.

Snow Depth

Station Depth Elevation

Earthquake Activity

City Distance Mag. Time & Date
Minimum magnitude displayed is 2.5.

Coastal Water Temperatures

Place Temperature

Stations

Nearby Weather Stations

Station Location Temp. Windchill Dew Point Humidity Wind Precip. Elev Updated Type